Portada
METAR-TAF:

METAR-TAF

Aeroports :

Jaipur, Índia

latitud: 26-49N, longitud: 075-48E, altitud: 385 m

Observació

L'informe es va fer fa 27 minuts, a les 11:00 UTC
Vent 7 kt del Oest/Nord-Oest
Temperatura 44°C
Humitat 9%
Pressió 1003 hPa
Visibilitat: 5000 m
Escasses núvols a una alçada de 3500 ft
Núvols disperses a una alçada de 10000 ft
calitja

METAR: VIJP 251100Z 30007KT 5000 HZ FEW035 SCT100 44/04 Q1003 NOSIG

Hora: 16:57 (11:27 UTC)

Pronòstic

L'informe es va fer fa 3 hores i 27 minuts, a les 08:00 UTC
Pronòstic vàlid del 25 a les 09 UTC al 25 a les 18 UTC
Vent 15 kt del Oest/Nord-Oest
Visibilitat: 5000 m
Escasses núvols a una alçada de 3500 ft
Núvols disperses a una alçada de 10000 ft
calitja
Evolucionant progressivament
l' 25 a les 13 UTC al 25 a les 15 UTC
Vent 16 kt del Oest
Visibilitat: 3000 m
Núvols disperses a una alçada de 3500 ft
Núvols disperses a una alçada de 10000 ft
calitja

TAF: VIJP 250800Z 2509/2518 29015KT 5000 HZ FEW035 SCT100 BECMG 2513/2515 27016KT 3000 HZ SCT035 SCT100

Observacions i pronòstics meteorològics de més de 4000 aeroports (METAR i TAF).

Les estacions disponibles són els punts grocs i vermells al mapa.

Posi el ratolí al punt desitjat per veure el nom de l'estació.

Feu clic per veure les observacions i els pronòstics meteorològics.

Per canviar el mapa: feu clic els botons verds amb una creu de color negre per apropar; al botó verd amb un guió per allunyar la imatge; o en les fletxes verdes per a mapes adjacents.


METAR-TAF: